Kyokusho Maru — JL6605 — position and weather

sailwx.info

Track history (hours):
 
Tides and Currents Weather Stations Pressure Air Temp Water Temp Dewpoint Dewpoint Depression Visibility Wind Speed Wind Dir Waves Ship Positions

Kyokusho Maru

Last reported at 2015-Jul-22 08:30 UTC. Time now 2015-Aug-05 06:24 UTC.
Position N 34°37' E 135°01'.
Warning: this ship's position is 13 days out of date.

Length 77 m; draft 5.5 m.

Type: Tanker. MMSI: 431501667.

Date/timePositionNaut miles runAvg speedWind from/ knotsBaromVisibWave heightAir tempDewpointWater temp
2015-Jul-22 08:30N 34°37' E 135°01'8 8.7
2015-Jul-22 07:33N 34°30' E 135°04'1411.5
2015-Jul-22 06:20N 34°16' E 134°59'12 1.9
2015-Jul-22 00:10N 34°07' E 135°08'1 2.3
2015-Jul-21 23:33N 34°08' E 135°07'2 1.6
2015-Jul-21 22:30N 34°09' E 135°09'0 0.0
2015-Jul-21 21:33N 34°09' E 135°09'0 0.0
2015-Jul-21 20:33N 34°09' E 135°09'0 0.0
2015-Jul-21 19:33N 34°09' E 135°09'0 0.0
2015-Jul-21 18:33N 34°09' E 135°09'0 0.0
2015-Jul-21 17:24N 34°09' E 135°09'0 0.1
2015-Jul-21 16:30N 34°09' E 135°09'0 0.0
2015-Jul-21 15:24N 34°09' E 135°09'0 0.0
2015-Jul-21 14:24N 34°09' E 135°09'0 0.0
2015-Jul-21 13:21N 34°09' E 135°09'0 0.0
2015-Jul-21 12:24N 34°09' E 135°09'0 0.0
2015-Jul-21 11:33N 34°09' E 135°09'0 0.0
2015-Jul-21 10:24N 34°09' E 135°09'0 0.0
2015-Jul-21 09:18N 34°09' E 135°09'0 0.0
2015-Jul-21 08:33N 34°09' E 135°09'0 0.0
2015-Jul-21 07:33N 34°09' E 135°09'0 0.0
2015-Jul-21 06:27N 34°09' E 135°09'0 0.0
2015-Jul-21 05:33N 34°09' E 135°09'0 0.0
2015-Jul-21 04:24N 34°09' E 135°09'0 0.0
2015-Jul-21 03:33N 34°09' E 135°09'0 0.0
2015-Jul-21 02:27N 34°09' E 135°09'0 0.0
2015-Jul-21 01:30N 34°09' E 135°09'0 0.0
2015-Jul-20 23:30N 34°09' E 135°09'0 0.0
2015-Jul-20 22:33N 34°09' E 135°09'0 0.0
2015-Jul-20 21:30N 34°09' E 135°09'0 0.1
2015-Jul-20 20:33N 34°09' E 135°09'0 0.0
2015-Jul-20 19:33N 34°09' E 135°09'0 0.0
2015-Jul-20 18:21N 34°09' E 135°09'0 0.0
2015-Jul-20 17:33N 34°09' E 135°09'0 0.0
2015-Jul-20 16:30N 34°09' E 135°09'0 0.0
2015-Jul-20 15:33N 34°09' E 135°09'0 0.0
2015-Jul-20 14:30N 34°09' E 135°09'0 0.0
2015-Jul-20 13:33N 34°09' E 135°09'0 0.0
2015-Jul-20 12:24N 34°09' E 135°09'0 0.0
2015-Jul-20 11:33N 34°09' E 135°09'0 0.0
2015-Jul-20 10:33N 34°09' E 135°09'0 0.0
2015-Jul-20 09:33N 34°09' E 135°09'0 0.1
2015-Jul-20 08:33N 34°09' E 135°09'0 0.0
2015-Jul-20 07:30N 34°09' E 135°09'0 0.1
2015-Jul-20 06:30N 34°09' E 135°09'0 0.0
2015-Jul-20 05:27N 34°09' E 135°09'0 0.1
2015-Jul-20 04:33N 34°09' E 135°09'2 1.8
2015-Jul-20 03:27N 34°08' E 135°07'0 0.0
2015-Jul-20 02:30N 34°08' E 135°07'0 0.0
2015-Jul-20 01:30N 34°08' E 135°07'0 0.1
2015-Jul-20 00:33N 34°08' E 135°07'0 0.0
2015-Jul-19 23:33N 34°08' E 135°07'0 0.0
2015-Jul-19 22:33N 34°08' E 135°07'0 0.0
2015-Jul-19 21:33N 34°08' E 135°07'0 0.0
2015-Jul-19 20:09N 34°08' E 135°07'0 0.0
2015-Jul-19 19:30N 34°08' E 135°07'0 0.0
2015-Jul-19 18:21N 34°08' E 135°07'0 0.0
2015-Jul-19 17:33N 34°08' E 135°07'0 0.0
2015-Jul-19 16:30N 34°08' E 135°07'0 0.0
2015-Jul-19 15:33N 34°08' E 135°07'0 0.0
2015-Jul-19 14:30N 34°08' E 135°07'0 0.0
2015-Jul-19 13:33N 34°08' E 135°07'0 0.0
2015-Jul-19 12:24N 34°08' E 135°07'0 0.0
2015-Jul-19 11:30N 34°08' E 135°07'0 0.0
2015-Jul-19 10:30N 34°08' E 135°07'0 0.0
2015-Jul-19 09:30N 34°08' E 135°07'0 0.0
2015-Jul-19 08:33N 34°08' E 135°07'0 0.1
2015-Jul-19 07:29N 34°08' E 135°07'0 0.0
2015-Jul-19 06:29N 34°08' E 135°07'0 0.0
2015-Jul-19 05:29N 34°08' E 135°07'0 0.1
2015-Jul-19 04:29N 34°08' E 135°07'23 5.7
2015-Jul-19 00:32N 34°30' E 135°14'0 0.0
2015-Jul-18 23:32N 34°30' E 135°14'0 0.0
2015-Jul-18 22:29N 34°30' E 135°14'0 0.0
2015-Jul-18 21:29N 34°30' E 135°14'0 0.0
2015-Jul-18 20:29N 34°30' E 135°14'0 0.1
2015-Jul-18 19:29N 34°30' E 135°14'0 0.1
2015-Jul-18 18:29N 34°30' E 135°14'0 0.0
2015-Jul-18 17:29N 34°30' E 135°14'0 0.0
2015-Jul-18 15:29N 34°30' E 135°14'0 0.0
2015-Jul-18 14:29N 34°30' E 135°14'0 0.0
2015-Jul-18 11:14N 34°30' E 135°14'0 0.0
2015-Jul-18 10:20N 34°30' E 135°14'0 0.0
2015-Jul-18 07:11N 34°30' E 135°14'0 0.1
2015-Jul-18 06:29N 34°30' E 135°14'0 0.1
2015-Jul-18 05:32N 34°30' E 135°14'0 0.0
2015-Jul-18 04:32N 34°30' E 135°14'0 0.0
2015-Jul-18 03:32N 34°30' E 135°14'0 0.0
2015-Jul-18 02:29N 34°30' E 135°14'0 0.0
2015-Jul-18 01:17N 34°30' E 135°14'0 0.0
2015-Jul-18 00:32N 34°30' E 135°14'0 0.0
2015-Jul-17 23:32N 34°30' E 135°14'0 0.1
2015-Jul-17 22:29N 34°30' E 135°14'0 0.0
2015-Jul-17 21:32N 34°30' E 135°14'0 0.0
2015-Jul-17 20:32N 34°30' E 135°14'0 0.0
2015-Jul-17 19:29N 34°30' E 135°14'0 0.0
2015-Jul-17 17:29N 34°30' E 135°14'0 0.0
2015-Jul-17 16:05N 34°30' E 135°14'0 0.0
2015-Jul-17 15:23N 34°30' E 135°14'0 0.0
2015-Jul-17 14:32N 34°30' E 135°14'0 0.0
2015-Jul-17 13:32N 34°30' E 135°14'0 0.0
2015-Jul-17 12:32N 34°30' E 135°14'0 0.0
2015-Jul-17 11:17N 34°30' E 135°14'0 0.0
2015-Jul-17 10:29N 34°30' E 135°14'0 0.0
2015-Jul-17 09:32N 34°30' E 135°14'0 0.0
2015-Jul-17 08:20N 34°30' E 135°14'0 0.0
2015-Jul-17 07:20N 34°30' E 135°14'0 0.0
2015-Jul-17 06:32N 34°30' E 135°14'0 0.0
2015-Jul-17 05:32N 34°30' E 135°14'0 0.0
2015-Jul-17 04:32N 34°30' E 135°14'0 0.0
2015-Jul-17 03:29N 34°30' E 135°14'0 0.0
2015-Jul-17 02:32N 34°30' E 135°14'0 0.0
2015-Jul-17 01:32N 34°30' E 135°14'0 0.0
2015-Jul-17 00:29N 34°30' E 135°14'0 0.1
2015-Jul-16 23:29N 34°30' E 135°14'0 0.0
2015-Jul-16 22:29N 34°30' E 135°14'0 0.0
2015-Jul-16 21:32N 34°30' E 135°14'0 0.0
2015-Jul-16 20:32N 34°30' E 135°14'0 0.0
2015-Jul-16 19:32N 34°30' E 135°14'0 0.0
2015-Jul-16 18:29N 34°30' E 135°14'0 0.0
2015-Jul-16 17:29N 34°30' E 135°14'0 0.0
2015-Jul-16 16:32N 34°30' E 135°14'0 0.0
2015-Jul-16 15:32N 34°30' E 135°14'0 0.0
2015-Jul-16 14:29N 34°30' E 135°14'0 0.0
2015-Jul-16 13:32N 34°30' E 135°14'0 0.0
2015-Jul-16 12:26N 34°30' E 135°14'0 0.0
2015-Jul-16 11:32N 34°30' E 135°14'0 0.0
2015-Jul-16 10:32N 34°30' E 135°14'0 0.0
2015-Jul-16 09:32N 34°30' E 135°14'0 0.0
2015-Jul-16 08:29N 34°30' E 135°14'0 0.0
2015-Jul-16 07:32N 34°30' E 135°14'0 0.0
2015-Jul-16 06:29N 34°30' E 135°14'0 0.0
2015-Jul-16 05:29N 34°30' E 135°14'0 0.0
2015-Jul-16 04:26N 34°30' E 135°14'0 0.0
2015-Jul-16 03:29N 34°30' E 135°14'0 0.0
2015-Jul-16 02:29N 34°30' E 135°14'0 0.0
2015-Jul-16 01:32N 34°30' E 135°14'0 0.0
2015-Jul-16 00:32N 34°30' E 135°14'0 0.0
2015-Jul-15 23:32N 34°30' E 135°14'0 0.0
2015-Jul-15 22:32N 34°30' E 135°14'0 0.0
2015-Jul-15 21:32N 34°30' E 135°14'0 0.0
2015-Jul-15 20:29N 34°30' E 135°14'0 0.0
2015-Jul-15 19:29N 34°30' E 135°14'0 0.0
2015-Jul-15 18:32N 34°30' E 135°14'0 0.0
2015-Jul-15 17:32N 34°30' E 135°14'0 0.0
2015-Jul-15 16:32N 34°30' E 135°14'0 0.0
2015-Jul-15 15:32N 34°30' E 135°14'0 0.0
2015-Jul-15 14:32N 34°30' E 135°14'6 5.7
2015-Jul-15 13:33N 34°32' E 135°08'  
Track history (hours):
 
Tides and Currents Weather Stations Pressure Air Temp Water Temp Dewpoint Dewpoint Depression Visibility Wind Speed Wind Dir Waves Ship Positions

Kyokusho Maru

Last reported at 2015-Jul-22 08:30 UTC. Time now 2015-Aug-05 06:24 UTC.
Position N 34°37' E 135°01'.
Warning: this ship's position is 13 days out of date.

Length 77 m; draft 5.5 m.

Type: Tanker. MMSI: 431501667.

Date/timePositionNaut miles runAvg speedWind from/ knotsBaromVisibWave heightAir tempDewpointWater temp
2015-Jul-22 08:30N 34°37' E 135°01'8 8.7
2015-Jul-22 07:33N 34°30' E 135°04'1411.5
2015-Jul-22 06:20N 34°16' E 134°59'12 1.9
2015-Jul-22 00:10N 34°07' E 135°08'1 2.3
2015-Jul-21 23:33N 34°08' E 135°07'2 1.6
2015-Jul-21 22:30N 34°09' E 135°09'0 0.0
2015-Jul-21 21:33N 34°09' E 135°09'0 0.0
2015-Jul-21 20:33N 34°09' E 135°09'0 0.0
2015-Jul-21 19:33N 34°09' E 135°09'0 0.0
2015-Jul-21 18:33N 34°09' E 135°09'0 0.0
2015-Jul-21 17:24N 34°09' E 135°09'0 0.1
2015-Jul-21 16:30N 34°09' E 135°09'0 0.0
2015-Jul-21 15:24N 34°09' E 135°09'0 0.0
2015-Jul-21 14:24N 34°09' E 135°09'0 0.0
2015-Jul-21 13:21N 34°09' E 135°09'0 0.0
2015-Jul-21 12:24N 34°09' E 135°09'0 0.0
2015-Jul-21 11:33N 34°09' E 135°09'0 0.0
2015-Jul-21 10:24N 34°09' E 135°09'0 0.0
2015-Jul-21 09:18N 34°09' E 135°09'0 0.0
2015-Jul-21 08:33N 34°09' E 135°09'0 0.0
2015-Jul-21 07:33N 34°09' E 135°09'0 0.0
2015-Jul-21 06:27N 34°09' E 135°09'0 0.0
2015-Jul-21 05:33N 34°09' E 135°09'0 0.0
2015-Jul-21 04:24N 34°09' E 135°09'0 0.0
2015-Jul-21 03:33N 34°09' E 135°09'0 0.0
2015-Jul-21 02:27N 34°09' E 135°09'0 0.0
2015-Jul-21 01:30N 34°09' E 135°09'0 0.0
2015-Jul-20 23:30N 34°09' E 135°09'0 0.0
2015-Jul-20 22:33N 34°09' E 135°09'0 0.0
2015-Jul-20 21:30N 34°09' E 135°09'0 0.1
2015-Jul-20 20:33N 34°09' E 135°09'0 0.0
2015-Jul-20 19:33N 34°09' E 135°09'0 0.0
2015-Jul-20 18:21N 34°09' E 135°09'0 0.0
2015-Jul-20 17:33N 34°09' E 135°09'0 0.0
2015-Jul-20 16:30N 34°09' E 135°09'0 0.0
2015-Jul-20 15:33N 34°09' E 135°09'0 0.0
2015-Jul-20 14:30N 34°09' E 135°09'0 0.0
2015-Jul-20 13:33N 34°09' E 135°09'0 0.0
2015-Jul-20 12:24N 34°09' E 135°09'0 0.0
2015-Jul-20 11:33N 34°09' E 135°09'0 0.0
2015-Jul-20 10:33N 34°09' E 135°09'0 0.0
2015-Jul-20 09:33N 34°09' E 135°09'0 0.1
2015-Jul-20 08:33N 34°09' E 135°09'0 0.0
2015-Jul-20 07:30N 34°09' E 135°09'0 0.1
2015-Jul-20 06:30N 34°09' E 135°09'0 0.0
2015-Jul-20 05:27N 34°09' E 135°09'0 0.1
2015-Jul-20 04:33N 34°09' E 135°09'2 1.8
2015-Jul-20 03:27N 34°08' E 135°07'0 0.0
2015-Jul-20 02:30N 34°08' E 135°07'0 0.0
2015-Jul-20 01:30N 34°08' E 135°07'0 0.1
2015-Jul-20 00:33N 34°08' E 135°07'0 0.0
2015-Jul-19 23:33N 34°08' E 135°07'0 0.0
2015-Jul-19 22:33N 34°08' E 135°07'0 0.0
2015-Jul-19 21:33N 34°08' E 135°07'0 0.0
2015-Jul-19 20:09N 34°08' E 135°07'0 0.0
2015-Jul-19 19:30N 34°08' E 135°07'0 0.0
2015-Jul-19 18:21N 34°08' E 135°07'0 0.0
2015-Jul-19 17:33N 34°08' E 135°07'0 0.0
2015-Jul-19 16:30N 34°08' E 135°07'0 0.0
2015-Jul-19 15:33N 34°08' E 135°07'0 0.0
2015-Jul-19 14:30N 34°08' E 135°07'0 0.0
2015-Jul-19 13:33N 34°08' E 135°07'0 0.0
2015-Jul-19 12:24N 34°08' E 135°07'0 0.0
2015-Jul-19 11:30N 34°08' E 135°07'0 0.0
2015-Jul-19 10:30N 34°08' E 135°07'0 0.0
2015-Jul-19 09:30N 34°08' E 135°07'0 0.0
2015-Jul-19 08:33N 34°08' E 135°07'0 0.1
2015-Jul-19 07:29N 34°08' E 135°07'0 0.0
2015-Jul-19 06:29N 34°08' E 135°07'0 0.0
2015-Jul-19 05:29N 34°08' E 135°07'0 0.1
2015-Jul-19 04:29N 34°08' E 135°07'23 5.7
2015-Jul-19 00:32N 34°30' E 135°14'0 0.0
2015-Jul-18 23:32N 34°30' E 135°14'0 0.0
2015-Jul-18 22:29N 34°30' E 135°14'0 0.0
2015-Jul-18 21:29N 34°30' E 135°14'0 0.0
2015-Jul-18 20:29N 34°30' E 135°14'0 0.1
2015-Jul-18 19:29N 34°30' E 135°14'0 0.1
2015-Jul-18 18:29N 34°30' E 135°14'0 0.0
2015-Jul-18 17:29N 34°30' E 135°14'0 0.0
2015-Jul-18 15:29N 34°30' E 135°14'0 0.0
2015-Jul-18 14:29N 34°30' E 135°14'0 0.0
2015-Jul-18 11:14N 34°30' E 135°14'0 0.0
2015-Jul-18 10:20N 34°30' E 135°14'0 0.0
2015-Jul-18 07:11N 34°30' E 135°14'0 0.1
2015-Jul-18 06:29N 34°30' E 135°14'0 0.1
2015-Jul-18 05:32N 34°30' E 135°14'0 0.0
2015-Jul-18 04:32N 34°30' E 135°14'0 0.0
2015-Jul-18 03:32N 34°30' E 135°14'0 0.0
2015-Jul-18 02:29N 34°30' E 135°14'0 0.0
2015-Jul-18 01:17N 34°30' E 135°14'0 0.0
2015-Jul-18 00:32N 34°30' E 135°14'0 0.0
2015-Jul-17 23:32N 34°30' E 135°14'0 0.1
2015-Jul-17 22:29N 34°30' E 135°14'0 0.0
2015-Jul-17 21:32N 34°30' E 135°14'0 0.0
2015-Jul-17 20:32N 34°30' E 135°14'0 0.0
2015-Jul-17 19:29N 34°30' E 135°14'0 0.0
2015-Jul-17 17:29N 34°30' E 135°14'0 0.0
2015-Jul-17 16:05N 34°30' E 135°14'0 0.0
2015-Jul-17 15:23N 34°30' E 135°14'0 0.0
2015-Jul-17 14:32N 34°30' E 135°14'0 0.0
2015-Jul-17 13:32N 34°30' E 135°14'0 0.0
2015-Jul-17 12:32N 34°30' E 135°14'0 0.0
2015-Jul-17 11:17N 34°30' E 135°14'0 0.0
2015-Jul-17 10:29N 34°30' E 135°14'0 0.0
2015-Jul-17 09:32N 34°30' E 135°14'0 0.0
2015-Jul-17 08:20N 34°30' E 135°14'0 0.0
2015-Jul-17 07:20N 34°30' E 135°14'0 0.0
2015-Jul-17 06:32N 34°30' E 135°14'0 0.0
2015-Jul-17 05:32N 34°30' E 135°14'0 0.0
2015-Jul-17 04:32N 34°30' E 135°14'0 0.0
2015-Jul-17 03:29N 34°30' E 135°14'0 0.0
2015-Jul-17 02:32N 34°30' E 135°14'0 0.0
2015-Jul-17 01:32N 34°30' E 135°14'0 0.0
2015-Jul-17 00:29N 34°30' E 135°14'0 0.1
2015-Jul-16 23:29N 34°30' E 135°14'0 0.0
2015-Jul-16 22:29N 34°30' E 135°14'0 0.0
2015-Jul-16 21:32N 34°30' E 135°14'0 0.0
2015-Jul-16 20:32N 34°30' E 135°14'0 0.0
2015-Jul-16 19:32N 34°30' E 135°14'0 0.0
2015-Jul-16 18:29N 34°30' E 135°14'0 0.0
2015-Jul-16 17:29N 34°30' E 135°14'0 0.0
2015-Jul-16 16:32N 34°30' E 135°14'0 0.0
2015-Jul-16 15:32N 34°30' E 135°14'0 0.0
2015-Jul-16 14:29N 34°30' E 135°14'0 0.0
2015-Jul-16 13:32N 34°30' E 135°14'0 0.0
2015-Jul-16 12:26N 34°30' E 135°14'0 0.0
2015-Jul-16 11:32N 34°30' E 135°14'0 0.0
2015-Jul-16 10:32N 34°30' E 135°14'0 0.0
2015-Jul-16 09:32N 34°30' E 135°14'0 0.0
2015-Jul-16 08:29N 34°30' E 135°14'0 0.0
2015-Jul-16 07:32N 34°30' E 135°14'0 0.0
2015-Jul-16 06:29N 34°30' E 135°14'0 0.0
2015-Jul-16 05:29N 34°30' E 135°14'0 0.0
2015-Jul-16 04:26N 34°30' E 135°14'0 0.0
2015-Jul-16 03:29N 34°30' E 135°14'0 0.0
2015-Jul-16 02:29N 34°30' E 135°14'0 0.0
2015-Jul-16 01:32N 34°30' E 135°14'0 0.0
2015-Jul-16 00:32N 34°30' E 135°14'0 0.0
2015-Jul-15 23:32N 34°30' E 135°14'0 0.0
2015-Jul-15 22:32N 34°30' E 135°14'0 0.0
2015-Jul-15 21:32N 34°30' E 135°14'0 0.0
2015-Jul-15 20:29N 34°30' E 135°14'0 0.0
2015-Jul-15 19:29N 34°30' E 135°14'0 0.0
2015-Jul-15 18:32N 34°30' E 135°14'0 0.0
2015-Jul-15 17:32N 34°30' E 135°14'0 0.0
2015-Jul-15 16:32N 34°30' E 135°14'0 0.0
2015-Jul-15 15:32N 34°30' E 135°14'0 0.0
2015-Jul-15 14:32N 34°30' E 135°14'6 5.7
2015-Jul-15 13:33N 34°32' E 135°08'  

Dump ship's entire track history